sensor_id;sensor_type;location;lat;lon;timestamp;temperature;humidity
9865;DHT22;4971;52.398;9.774;2023-01-19T00:01:24;0.70;99.90
9865;DHT22;4971;52.398;9.774;2023-01-19T00:03:51;0.70;99.90
9865;DHT22;4971;52.398;9.774;2023-01-19T00:06:17;0.70;99.90
9865;DHT22;4971;52.398;9.774;2023-01-19T00:08:43;0.80;99.90
9865;DHT22;4971;52.398;9.774;2023-01-19T00:11:11;0.50;99.90
9865;DHT22;4971;52.398;9.774;2023-01-19T00:13:38;0.60;99.90
9865;DHT22;4971;52.398;9.774;2023-01-19T00:16:04;0.60;99.90
9865;DHT22;4971;52.398;9.774;2023-01-19T00:18:30;0.60;99.90
9865;DHT22;4971;52.398;9.774;2023-01-19T00:20:56;0.60;99.90
9865;DHT22;4971;52.398;9.774;2023-01-19T00:23:21;0.60;99.90
9865;DHT22;4971;52.398;9.774;2023-01-19T00:28:17;0.50;99.90
9865;DHT22;4971;52.398;9.774;2023-01-19T00:30:43;0.40;99.90
9865;DHT22;4971;52.398;9.774;2023-01-19T00:33:10;0.00;99.90
9865;DHT22;4971;52.398;9.774;2023-01-19T00:42:56;0.10;99.90
9865;DHT22;4971;52.398;9.774;2023-01-19T00:45:23;0.80;99.90
9865;DHT22;4971;52.398;9.774;2023-01-19T00:47:49;0.70;99.90
9865;DHT22;4971;52.398;9.774;2023-01-19T00:52:47;0.70;99.90
9865;DHT22;4971;52.398;9.774;2023-01-19T00:55:14;0.70;99.90
9865;DHT22;4971;52.398;9.774;2023-01-19T01:00:11;1.20;99.90
9865;DHT22;4971;52.398;9.774;2023-01-19T01:02:38;0.70;99.90
9865;DHT22;4971;52.398;9.774;2023-01-19T01:07:31;0.80;99.90
9865;DHT22;4971;52.398;9.774;2023-01-19T01:10:07;0.20;99.90
9865;DHT22;4971;52.398;9.774;2023-01-19T01:17:26;1.00;99.90
9865;DHT22;4971;52.398;9.774;2023-01-19T01:19:54;0.90;99.90
9865;DHT22;4971;52.398;9.774;2023-01-19T01:24:46;0.90;99.90
9865;DHT22;4971;52.398;9.774;2023-01-19T01:27:12;0.90;99.90
9865;DHT22;4971;52.398;9.774;2023-01-19T01:32:06;1.00;99.90
9865;DHT22;4971;52.398;9.774;2023-01-19T01:41:50;1.00;99.90
9865;DHT22;4971;52.398;9.774;2023-01-19T01:44:48;0.90;99.90
9865;DHT22;4971;52.398;9.774;2023-01-19T01:50:24;0.90;99.90
9865;DHT22;4971;52.398;9.774;2023-01-19T01:53:11;0.90;99.90
9865;DHT22;4971;52.398;9.774;2023-01-19T01:55:45;0.90;99.90
9865;DHT22;4971;52.398;9.774;2023-01-19T01:58:14;0.90;99.90
9865;DHT22;4971;52.398;9.774;2023-01-19T02:00:41;0.90;99.90
9865;DHT22;4971;52.398;9.774;2023-01-19T02:03:26;0.90;99.90
9865;DHT22;4971;52.398;9.774;2023-01-19T02:05:58;0.80;99.90
9865;DHT22;4971;52.398;9.774;2023-01-19T02:11:12;1.10;99.90
9865;DHT22;4971;52.398;9.774;2023-01-19T02:26:45;1.20;99.90
9865;DHT22;4971;52.398;9.774;2023-01-19T02:36:42;1.10;99.90
9865;DHT22;4971;52.398;9.774;2023-01-19T02:39:13;1.20;99.90
9865;DHT22;4971;52.398;9.774;2023-01-19T02:41:44;1.10;99.90
9865;DHT22;4971;52.398;9.774;2023-01-19T02:46:37;1.30;99.90
9865;DHT22;4971;52.398;9.774;2023-01-19T03:02:32;1.20;99.90
9865;DHT22;4971;52.398;9.774;2023-01-19T03:18:26;1.10;99.90
9865;DHT22;4971;52.398;9.774;2023-01-19T03:23:25;1.30;99.90
9865;DHT22;4971;52.398;9.774;2023-01-19T03:28:23;1.30;99.90
9865;DHT22;4971;52.398;9.774;2023-01-19T03:33:31;1.40;99.90
9865;DHT22;4971;52.398;9.774;2023-01-19T03:55:41;1.80;99.90
9865;DHT22;4971;52.398;9.774;2023-01-19T04:03:04;1.80;99.90
9865;DHT22;4971;52.398;9.774;2023-01-19T04:20:07;2.00;99.90
9865;DHT22;4971;52.398;9.774;2023-01-19T04:24:59;1.90;99.90
9865;DHT22;4971;52.398;9.774;2023-01-19T04:27:25;2.00;99.90
9865;DHT22;4971;52.398;9.774;2023-01-19T04:37:09;2.10;99.90
9865;DHT22;4971;52.398;9.774;2023-01-19T05:08:50;1.60;99.90
9865;DHT22;4971;52.398;9.774;2023-01-19T05:25:58;4.00;99.90
9865;DHT22;4971;52.398;9.774;2023-01-19T05:38:16;2.20;99.90
9865;DHT22;4971;52.398;9.774;2023-01-19T05:45:34;2.20;99.90
9865;DHT22;4971;52.398;9.774;2023-01-19T05:48:00;2.30;99.90
9865;DHT22;4971;52.398;9.774;2023-01-19T05:55:18;2.40;99.90
9865;DHT22;4971;52.398;9.774;2023-01-19T06:14:51;2.50;99.90
9865;DHT22;4971;52.398;9.774;2023-01-19T06:22:09;2.50;99.90
9865;DHT22;4971;52.398;9.774;2023-01-19T06:44:04;2.40;99.90
9865;DHT22;4971;52.398;9.774;2023-01-19T07:55:03;2.60;99.90
9865;DHT22;4971;52.398;9.774;2023-01-19T08:02:22;2.60;99.90
9865;DHT22;4971;52.398;9.774;2023-01-19T08:04:48;2.60;99.90
9865;DHT22;4971;52.398;9.774;2023-01-19T08:14:32;2.50;99.90
9865;DHT22;4971;52.398;9.774;2023-01-19T08:17:02;2.60;99.90
9865;DHT22;4971;52.398;9.774;2023-01-19T08:21:55;2.50;99.90
9865;DHT22;4971;52.398;9.774;2023-01-19T08:26:58;2.70;99.90
9865;DHT22;4971;52.398;9.774;2023-01-19T08:39:10;2.70;99.90
9865;DHT22;4971;52.398;9.774;2023-01-19T08:44:09;2.70;99.90
9865;DHT22;4971;52.398;9.774;2023-01-19T08:49:01;2.80;99.90
9865;DHT22;4971;52.398;9.774;2023-01-19T08:56:19;2.80;99.90
9865;DHT22;4971;52.398;9.774;2023-01-19T08:58:45;3.00;99.90
9865;DHT22;4971;52.398;9.774;2023-01-19T09:06:12;3.30;99.90
9865;DHT22;4971;52.398;9.774;2023-01-19T09:08:39;2.80;99.90
9865;DHT22;4971;52.398;9.774;2023-01-19T09:11:12;2.70;99.90
9865;DHT22;4971;52.398;9.774;2023-01-19T09:16:05;2.70;99.90
9865;DHT22;4971;52.398;9.774;2023-01-19T09:18:34;2.70;99.90
9865;DHT22;4971;52.398;9.774;2023-01-19T09:21:01;2.60;99.90
9865;DHT22;4971;52.398;9.774;2023-01-19T09:23:27;2.60;99.90
9865;DHT22;4971;52.398;9.774;2023-01-19T09:26:01;2.50;99.90
9865;DHT22;4971;52.398;9.774;2023-01-19T09:28:27;2.50;99.90
9865;DHT22;4971;52.398;9.774;2023-01-19T09:30:54;2.40;99.90
9865;DHT22;4971;52.398;9.774;2023-01-19T09:35:47;2.30;99.90
9865;DHT22;4971;52.398;9.774;2023-01-19T09:48:14;2.30;99.90
9865;DHT22;4971;52.398;9.774;2023-01-19T09:53:32;2.30;99.90
9865;DHT22;4971;52.398;9.774;2023-01-19T09:58:25;2.30;99.90
9865;DHT22;4971;52.398;9.774;2023-01-19T10:00:56;2.10;99.90
9865;DHT22;4971;52.398;9.774;2023-01-19T10:05:54;2.20;99.90
9865;DHT22;4971;52.398;9.774;2023-01-19T10:10:52;1.80;99.90
9865;DHT22;4971;52.398;9.774;2023-01-19T10:13:45;1.90;99.90
9865;DHT22;4971;52.398;9.774;2023-01-19T10:21:36;2.00;99.90
9865;DHT22;4971;52.398;9.774;2023-01-19T10:24:11;2.00;99.90
9865;DHT22;4971;52.398;9.774;2023-01-19T10:31:41;1.80;99.90
9865;DHT22;4971;52.398;9.774;2023-01-19T10:34:11;1.90;99.90
9865;DHT22;4971;52.398;9.774;2023-01-19T10:36:44;1.80;99.90
9865;DHT22;4971;52.398;9.774;2023-01-19T10:39:14;1.70;99.90
9865;DHT22;4971;52.398;9.774;2023-01-19T10:41:44;1.80;99.90
9865;DHT22;4971;52.398;9.774;2023-01-19T10:46:45;1.90;99.90
9865;DHT22;4971;52.398;9.774;2023-01-19T10:59:36;2.10;99.90
9865;DHT22;4971;52.398;9.774;2023-01-19T11:16:57;2.30;99.90
9865;DHT22;4971;52.398;9.774;2023-01-19T11:19:29;0.80;99.90
9865;DHT22;4971;52.398;9.774;2023-01-19T11:22:15;2.40;99.90
9865;DHT22;4971;52.398;9.774;2023-01-19T11:24:46;2.40;99.90
9865;DHT22;4971;52.398;9.774;2023-01-19T11:27:16;2.50;99.90
9865;DHT22;4971;52.398;9.774;2023-01-19T11:29:49;2.50;99.90
9865;DHT22;4971;52.398;9.774;2023-01-19T11:32:20;2.60;99.90
9865;DHT22;4971;52.398;9.774;2023-01-19T11:34:47;2.60;99.90
9865;DHT22;4971;52.398;9.774;2023-01-19T11:39:51;2.80;99.90
9865;DHT22;4971;52.398;9.774;2023-01-19T11:47:19;2.90;99.90
9865;DHT22;4971;52.398;9.774;2023-01-19T11:50:03;2.80;99.90
9865;DHT22;4971;52.398;9.774;2023-01-19T11:53:13;3.00;99.90
9865;DHT22;4971;52.398;9.774;2023-01-19T11:58:23;3.00;99.90
9865;DHT22;4971;52.398;9.774;2023-01-19T12:03:35;3.10;99.90
9865;DHT22;4971;52.398;9.774;2023-01-19T12:08:41;3.00;99.90
9865;DHT22;4971;52.398;9.774;2023-01-19T12:11:11;3.00;99.90
9865;DHT22;4971;52.398;9.774;2023-01-19T12:16:20;2.90;99.90
9865;DHT22;4971;52.398;9.774;2023-01-19T12:19:17;2.60;99.90
9865;DHT22;4971;52.398;9.774;2023-01-19T12:21:44;2.40;99.90
9865;DHT22;4971;52.398;9.774;2023-01-19T12:29:17;2.10;99.90
9865;DHT22;4971;52.398;9.774;2023-01-19T12:34:42;2.10;99.90
9865;DHT22;4971;52.398;9.774;2023-01-19T12:49:55;2.10;99.90
9865;DHT22;4971;52.398;9.774;2023-01-19T12:52:28;2.20;99.90
9865;DHT22;4971;52.398;9.774;2023-01-19T13:26:29;2.50;99.90
9865;DHT22;4971;52.398;9.774;2023-01-19T13:29:02;2.60;99.90
9865;DHT22;4971;52.398;9.774;2023-01-19T13:31:38;2.80;99.90
9865;DHT22;4971;52.398;9.774;2023-01-19T13:34:11;2.60;99.90
9865;DHT22;4971;52.398;9.774;2023-01-19T13:36:41;2.70;99.90
9865;DHT22;4971;52.398;9.774;2023-01-19T13:39:26;2.70;99.90
9865;DHT22;4971;52.398;9.774;2023-01-19T13:41:58;2.70;99.90
9865;DHT22;4971;52.398;9.774;2023-01-19T13:44:31;2.80;99.90
9865;DHT22;4971;52.398;9.774;2023-01-19T13:49:34;2.80;99.90
9865;DHT22;4971;52.398;9.774;2023-01-19T13:55:01;2.80;99.90
9865;DHT22;4971;52.398;9.774;2023-01-19T13:57:32;2.80;99.90
9865;DHT22;4971;52.398;9.774;2023-01-19T14:02:58;2.90;99.90
9865;DHT22;4971;52.398;9.774;2023-01-19T14:13:03;2.70;99.90
9865;DHT22;4971;52.398;9.774;2023-01-19T14:21:02;3.30;99.90
9865;DHT22;4971;52.398;9.774;2023-01-19T14:23:53;3.30;99.90
9865;DHT22;4971;52.398;9.774;2023-01-19T14:26:43;3.30;99.90
9865;DHT22;4971;52.398;9.774;2023-01-19T14:29:30;3.40;99.90
9865;DHT22;4971;52.398;9.774;2023-01-19T14:34:44;3.30;99.90
9865;DHT22;4971;52.398;9.774;2023-01-19T14:42:04;3.20;99.90
9865;DHT22;4971;52.398;9.774;2023-01-19T14:44:36;3.10;99.90
9865;DHT22;4971;52.398;9.774;2023-01-19T14:47:04;3.10;99.90
9865;DHT22;4971;52.398;9.774;2023-01-19T14:49:35;3.10;99.90
9865;DHT22;4971;52.398;9.774;2023-01-19T14:52:07;3.10;99.90
9865;DHT22;4971;52.398;9.774;2023-01-19T14:54:42;3.30;99.90
9865;DHT22;4971;52.398;9.774;2023-01-19T14:57:13;3.10;99.90
9865;DHT22;4971;52.398;9.774;2023-01-19T15:11:50;3.20;99.90
9865;DHT22;4971;52.398;9.774;2023-01-19T15:19:11;3.00;99.90
9865;DHT22;4971;52.398;9.774;2023-01-19T15:24:15;3.00;99.90
9865;DHT22;4971;52.398;9.774;2023-01-19T15:26:41;3.00;99.90
9865;DHT22;4971;52.398;9.774;2023-01-19T15:29:27;3.00;99.90
9865;DHT22;4971;52.398;9.774;2023-01-19T15:34:19;2.90;99.90
9865;DHT22;4971;52.398;9.774;2023-01-19T16:13:23;3.50;99.90
9865;DHT22;4971;52.398;9.774;2023-01-19T16:18:15;2.60;99.90
9865;DHT22;4971;52.398;9.774;2023-01-19T16:35:18;2.60;99.90
9865;DHT22;4971;52.398;9.774;2023-01-19T16:40:14;2.50;99.90
9865;DHT22;4971;52.398;9.774;2023-01-19T16:45:06;2.50;99.90
9865;DHT22;4971;52.398;9.774;2023-01-19T16:47:32;2.50;99.90
9865;DHT22;4971;52.398;9.774;2023-01-19T17:38:54;2.20;99.90
9865;DHT22;4971;52.398;9.774;2023-01-19T17:46:22;2.20;99.90
9865;DHT22;4971;52.398;9.774;2023-01-19T17:51:24;2.20;99.90
9865;DHT22;4971;52.398;9.774;2023-01-19T18:08:40;2.20;99.90
9865;DHT22;4971;52.398;9.774;2023-01-19T19:02:16;2.20;99.90
9865;DHT22;4971;52.398;9.774;2023-01-19T19:14:26;2.10;99.90
9865;DHT22;4971;52.398;9.774;2023-01-19T19:24:10;1.70;99.90
9865;DHT22;4971;52.398;9.774;2023-01-19T20:05:44;1.80;99.90
9865;DHT22;4971;52.398;9.774;2023-01-19T20:35:03;1.60;99.90
